createdAt,value
2022-08-08T00:00:56.088Z,9.7
2022-08-08T00:05:22.275Z,9.7
2022-08-08T00:10:28.858Z,9.5
2022-08-08T00:15:23.917Z,9.4
2022-08-08T00:20:23.398Z,9.3
2022-08-08T00:25:44.970Z,9.2
2022-08-08T00:30:18.442Z,9.1
2022-08-08T00:35:24.444Z,9.0
2022-08-08T00:41:12.667Z,8.9
2022-08-08T00:45:21.371Z,8.8
2022-08-08T00:50:25.537Z,8.7
2022-08-08T00:55:52.485Z,8.6
2022-08-08T01:00:22.364Z,8.5
2022-08-08T01:05:41.948Z,8.6
2022-08-08T01:10:33.014Z,8.7
2022-08-08T01:15:37.346Z,8.6
2022-08-08T01:20:28.109Z,8.2
2022-08-08T01:25:17.387Z,8.2
2022-08-08T01:30:23.301Z,8.2
2022-08-08T01:35:29.628Z,8.0
2022-08-08T01:40:18.355Z,8.0
2022-08-08T01:45:24.539Z,7.9
2022-08-08T01:50:36.456Z,7.9
2022-08-08T01:56:26.634Z,7.8
2022-08-08T01:56:28.908Z,7.8
2022-08-08T02:00:25.010Z,7.8
2022-08-08T02:05:33.879Z,7.7
2022-08-08T02:10:29.901Z,7.7
2022-08-08T02:15:26.792Z,7.6
2022-08-08T02:21:01.510Z,7.5
2022-08-08T02:25:21.767Z,7.5
2022-08-08T02:30:28.014Z,7.5
2022-08-08T02:35:16.930Z,7.4
2022-08-08T02:40:23.219Z,7.4
2022-08-08T02:45:29.011Z,7.3
2022-08-08T02:50:18.229Z,7.2
2022-08-08T02:55:23.905Z,7.2
2022-08-08T03:00:31.723Z,7.1
2022-08-08T03:05:18.679Z,7.0
2022-08-08T03:10:32.438Z,7.0
2022-08-08T03:15:59.223Z,6.9
2022-08-08T03:20:19.588Z,6.9
2022-08-08T03:25:33.961Z,6.9
2022-08-08T03:30:32.135Z,6.8
2022-08-08T03:35:20.852Z,6.8
2022-08-08T03:40:30.350Z,6.8
2022-08-08T03:46:05.125Z,6.7
2022-08-08T03:50:24.867Z,6.7
2022-08-08T03:55:57.456Z,6.7
2022-08-08T04:00:18.077Z,6.7
2022-08-08T04:05:27.400Z,6.7
2022-08-08T04:10:32.065Z,6.8
2022-08-08T04:15:18.358Z,6.8
2022-08-08T04:20:28.249Z,6.7
2022-08-08T04:25:30.098Z,6.8
2022-08-08T04:30:19.693Z,7.1
2022-08-08T04:35:24.680Z,7.3
2022-08-08T04:40:30.754Z,7.5
2022-08-08T04:45:19.794Z,7.9
2022-08-08T04:50:32.580Z,8.3
2022-08-08T04:55:47.217Z,8.7
2022-08-08T05:00:20.631Z,9.0
2022-08-08T05:05:44.471Z,9.6
2022-08-08T05:10:32.090Z,9.9
2022-08-08T05:15:21.103Z,10.1
2022-08-08T05:20:27.266Z,10.7
2022-08-08T05:25:16.161Z,11.0
2022-08-08T05:30:28.022Z,11.5
2022-08-08T05:35:28.343Z,11.9
2022-08-08T05:40:17.333Z,12.5
2022-08-08T05:45:25.293Z,12.8
2022-08-08T05:50:29.452Z,13.0
2022-08-08T05:55:18.338Z,13.5
2022-08-08T06:00:25.516Z,14.0
2022-08-08T06:05:34.644Z,14.1
2022-08-08T06:10:24.457Z,14.4
2022-08-08T06:15:26.093Z,14.8
2022-08-08T06:20:32.186Z,15.1
2022-08-08T06:25:58.914Z,15.5
2022-08-08T06:26:43.174Z,15.5
2022-08-08T06:30:28.963Z,15.9
2022-08-08T06:36:04.724Z,16.4
2022-08-08T06:40:25.825Z,17.0
2022-08-08T06:45:28.350Z,17.1
2022-08-08T06:50:17.537Z,17.2
2022-08-08T06:55:23.043Z,17.2
2022-08-08T07:00:29.525Z,17.8
2022-08-08T07:05:20.489Z,18.0
2022-08-08T07:10:24.989Z,18.2
2022-08-08T07:16:03.612Z,18.2
2022-08-08T07:20:19.937Z,18.7
2022-08-08T07:25:29.399Z,18.7
2022-08-08T07:30:32.022Z,18.9
2022-08-08T07:35:22.177Z,19.1
2022-08-08T07:40:29.811Z,19.5
2022-08-08T07:45:34.338Z,19.9
2022-08-08T07:50:23.369Z,20.2
2022-08-08T07:55:28.678Z,20.2
2022-08-08T08:00:17.435Z,20.2
2022-08-08T08:05:22.203Z,20.6
2022-08-08T08:10:30.592Z,20.6
2022-08-08T08:15:17.376Z,20.9
2022-08-08T08:20:30.330Z,21.6
2022-08-08T08:25:42.752Z,21.5
2022-08-08T08:30:18.604Z,21.6
2022-08-08T08:35:29.815Z,21.9
2022-08-08T08:40:30.682Z,21.9
2022-08-08T08:45:23.113Z,22.1
2022-08-08T08:50:33.337Z,22.3
2022-08-08T08:55:31.580Z,22.7
2022-08-08T09:00:21.098Z,22.6
2022-08-08T09:05:29.063Z,22.7
2022-08-08T09:10:32.114Z,22.8
2022-08-08T09:15:41.332Z,22.6
2022-08-08T09:21:56.299Z,22.1
2022-08-08T09:22:02.440Z,22.1
2022-08-08T09:25:17.101Z,22.6
2022-08-08T09:30:23.142Z,22.8
2022-08-08T09:35:32.156Z,23.4
2022-08-08T09:40:20.184Z,23.1
2022-08-08T09:46:01.660Z,22.8
2022-08-08T09:50:29.463Z,22.9
2022-08-08T09:56:02.971Z,23.0
2022-08-08T10:00:49.678Z,23.7
2022-08-08T10:05:31.262Z,23.8
2022-08-08T10:10:19.361Z,23.3
2022-08-08T10:15:25.551Z,23.3
2022-08-08T10:20:44.455Z,24.0
2022-08-08T10:25:20.618Z,23.8
2022-08-08T10:30:57.043Z,23.1
2022-08-08T10:36:08.054Z,23.2
2022-08-08T10:40:21.716Z,23.2
2022-08-08T10:45:28.338Z,23.5
2022-08-08T10:50:16.989Z,23.8
2022-08-08T10:55:41.260Z,23.9
2022-08-08T11:00:28.278Z,24.0
2022-08-08T11:05:18.084Z,24.2
2022-08-08T11:10:28.619Z,23.9
2022-08-08T11:15:30.899Z,23.9
2022-08-08T11:20:23.653Z,24.4
2022-08-08T11:25:57.185Z,24.5
2022-08-08T11:30:31.796Z,24.9
2022-08-08T11:35:24.999Z,24.1
2022-08-08T11:40:26.733Z,24.3
2022-08-08T11:45:43.706Z,24.3
2022-08-08T11:50:23.530Z,24.8
2022-08-08T11:55:27.152Z,25.0
2022-08-08T12:00:16.455Z,25.3
2022-08-08T12:05:24.798Z,25.1
2022-08-08T12:10:29.258Z,25.3
2022-08-08T12:15:18.052Z,24.9
2022-08-08T12:20:23.841Z,25.1
2022-08-08T12:25:31.262Z,25.6
2022-08-08T12:30:24.723Z,25.5
2022-08-08T12:35:25.113Z,25.1
2022-08-08T12:40:31.115Z,25.1
2022-08-08T12:45:58.701Z,25.5
2022-08-08T12:50:26.065Z,26.4
2022-08-08T12:55:56.440Z,25.9
2022-08-08T13:00:21.079Z,26.1
2022-08-08T13:06:04.364Z,25.6
2022-08-08T13:10:32.500Z,25.9
2022-08-08T13:15:21.662Z,26.1
2022-08-08T13:20:27.918Z,26.4
2022-08-08T13:25:16.873Z,26.3
2022-08-08T13:30:26.505Z,26.8
2022-08-08T13:35:38.302Z,26.4
2022-08-08T13:40:27.124Z,26.3
2022-08-08T13:45:24.918Z,26.3
2022-08-08T13:50:36.754Z,26.3
2022-08-08T13:55:29.208Z,26.5
2022-08-08T14:00:25.540Z,26.3
2022-08-08T14:05:33.121Z,26.5
2022-08-08T14:10:32.958Z,26.5
2022-08-08T14:15:31.145Z,26.4
2022-08-08T14:20:57.802Z,26.4
2022-08-08T14:25:22.721Z,26.1
2022-08-08T14:30:27.117Z,26.4
2022-08-08T14:35:35.817Z,26.3
2022-08-08T14:40:23.968Z,26.5
2022-08-08T14:45:33.279Z,26.2
2022-08-08T14:50:37.551Z,26.3
2022-08-08T14:55:35.325Z,26.1
2022-08-08T15:00:28.515Z,26.1
2022-08-08T15:05:17.890Z,26.4
2022-08-08T15:10:24.179Z,26.3
2022-08-08T15:16:02.410Z,26.6
2022-08-08T15:20:19.133Z,26.2
2022-08-08T15:25:29.282Z,26.4
2022-08-08T15:30:31.316Z,26.6
2022-08-08T15:35:20.583Z,26.9
2022-08-08T15:40:28.210Z,26.5
2022-08-08T15:45:32.526Z,26.8
2022-08-08T15:50:21.561Z,26.6
2022-08-08T15:55:27.202Z,26.5
2022-08-08T16:00:27.028Z,26.5
2022-08-08T16:05:23.576Z,26.3
2022-08-08T16:13:03.375Z,26.5
2022-08-08T16:13:15.664Z,26.5
2022-08-08T16:13:20.911Z,26.5
2022-08-08T16:15:17.817Z,26.5
2022-08-08T16:20:24.041Z,26.5
2022-08-08T16:25:45.790Z,26.4
2022-08-08T16:30:24.517Z,26.5
2022-08-08T16:35:24.973Z,26.5
2022-08-08T16:40:31.330Z,26.6
2022-08-08T16:46:36.570Z,26.9
2022-08-08T16:46:42.806Z,26.9
2022-08-08T16:50:26.115Z,26.5
2022-08-08T16:55:54.076Z,26.6
2022-08-08T17:00:26.961Z,26.4
2022-08-08T17:05:42.385Z,26.6
2022-08-08T17:10:32.431Z,26.6
2022-08-08T17:15:23.063Z,26.5
2022-08-08T17:20:27.559Z,26.4
2022-08-08T17:25:17.065Z,26.3
2022-08-08T17:30:23.248Z,26.3
2022-08-08T17:35:55.830Z,25.9
2022-08-08T17:40:18.031Z,25.7
2022-08-08T17:45:24.439Z,25.6
2022-08-08T17:50:30.000Z,25.4
2022-08-08T17:56:05.190Z,25.2
2022-08-08T18:00:30.780Z,25.0
2022-08-08T18:05:30.125Z,24.1
2022-08-08T18:10:19.622Z,23.7
2022-08-08T18:15:25.287Z,23.8
2022-08-08T18:20:43.111Z,23.9
2022-08-08T18:25:20.484Z,23.8
2022-08-08T18:30:26.612Z,23.7
2022-08-08T18:35:16.787Z,23.4
2022-08-08T18:40:21.605Z,23.2
2022-08-08T18:46:00.566Z,22.9
2022-08-08T18:46:57.346Z,22.9
2022-08-08T18:50:16.700Z,22.6
2022-08-08T18:55:22.342Z,22.4
2022-08-08T19:00:28.993Z,22.0
2022-08-08T19:05:19.316Z,21.5
2022-08-08T19:10:23.885Z,20.9
2022-08-08T19:15:34.161Z,20.4
2022-08-08T19:20:19.482Z,19.8
2022-08-08T19:26:02.421Z,19.4
2022-08-08T19:26:31.421Z,19.4
2022-08-08T19:30:31.250Z,19.0
2022-08-08T19:35:20.186Z,19.0
2022-08-08T19:40:31.068Z,18.8
2022-08-08T19:45:57.324Z,18.4
2022-08-08T19:50:22.102Z,18.1
2022-08-08T19:55:27.073Z,17.9
2022-08-08T20:00:29.992Z,17.6
2022-08-08T20:06:12.929Z,17.4
2022-08-08T20:10:28.903Z,17.4
2022-08-08T20:15:17.781Z,17.2
2022-08-08T20:20:23.857Z,16.9
2022-08-08T20:25:31.474Z,16.8
2022-08-08T20:30:53.871Z,16.6
2022-08-08T20:35:57.585Z,16.5
2022-08-08T20:40:38.988Z,16.3
2022-08-08T20:45:54.957Z,16.0
2022-08-08T20:50:26.171Z,15.8
2022-08-08T20:55:42.431Z,15.7
2022-08-08T21:00:21.215Z,15.5
2022-08-08T21:05:31.790Z,15.3
2022-08-08T21:10:16.821Z,15.1
2022-08-08T21:16:04.645Z,15.0
2022-08-08T21:20:34.142Z,14.8
2022-08-08T21:25:18.082Z,14.7
2022-08-08T21:30:24.549Z,14.6
2022-08-08T21:36:13.726Z,14.5
2022-08-08T21:40:21.091Z,14.3
2022-08-08T21:45:44.255Z,14.2
2022-08-08T21:48:04.551Z,14.2
2022-08-08T21:48:06.530Z,14.2
2022-08-08T21:50:31.694Z,14.0
2022-08-08T21:56:18.164Z,13.7
2022-08-08T21:56:33.870Z,13.7
2022-08-08T22:00:26.437Z,13.5
2022-08-08T22:05:32.127Z,13.4
2022-08-08T22:10:28.642Z,13.3
2022-08-08T22:15:27.310Z,13.1
2022-08-08T22:20:32.485Z,13.0
2022-08-08T22:25:25.695Z,12.9
2022-08-08T22:30:29.372Z,12.7
2022-08-08T22:35:16.569Z,12.5
2022-08-08T22:40:22.892Z,12.4
2022-08-08T22:45:29.164Z,12.2
2022-08-08T22:50:27.033Z,12.2
2022-08-08T22:55:23.930Z,12.1
2022-08-08T23:00:29.678Z,12.1
2022-08-08T23:05:18.212Z,11.9
2022-08-08T23:10:25.304Z,11.7
2022-08-08T23:16:38.015Z,11.7
2022-08-08T23:16:39.772Z,11.7
2022-08-08T23:20:19.697Z,11.6
2022-08-08T23:25:25.647Z,11.5
2022-08-08T23:30:31.582Z,11.3
2022-08-08T23:35:20.675Z,11.2
2022-08-08T23:40:26.845Z,11.1
2022-08-08T23:49:03.604Z,10.9
2022-08-08T23:49:04.475Z,10.9
2022-08-08T23:49:08.354Z,10.9
2022-08-08T23:50:30.929Z,10.9
2022-08-08T23:55:27.634Z,10.8
